| time (UTC) | temp F | wind direction | speed MPH | gust MPH | rain 1hr in | rain 24hr in | rain mn in | humidity % | barometer mb |
| 20260507104619 | 57 | 180 | 5.0 | 13.0 | 0.00 | 0.51 | 0.00 | 75 | 1004.9 |
| 20260507103117 | 58 | 222 | 1.0 | 4.0 | 0.00 | 0.51 | 0.00 | 79 | 1004.8 |
| 20260507101618 | 58 | 222 | 6.0 | 12.0 | 0.00 | 0.51 | 0.00 | 77 | 1004.8 |
| 20260507100119 | 54 | 222 | 6.0 | 11.0 | 0.00 | 0.51 | 0.00 | 84 | 1005.1 |
| 20260507100117 | 54 | 222 | 6.0 | 11.0 | 0.00 | 0.00 | 0.00 | 84 | 1005.1 |
| 20260507094618 | 55 | 180 | 4.0 | 7.0 | 0.00 | 0.51 | 0.00 | 81 | 1005.0 |
| 20260507093117 | 56 | 270 | 3.0 | 5.0 | 0.00 | 0.51 | 0.00 | 83 | 1005.0 |
| 20260507091615 | 55 | 222 | 7.0 | 14.0 | 0.00 | 0.51 | 0.00 | 81 | 1005.1 |
| 20260507090113 | 56 | 222 | 7.0 | 21.0 | 0.00 | 0.51 | 0.00 | 76 | 1004.0 |
| 20260507084613 | 55 | 222 | 5.0 | 10.0 | 0.00 | 0.00 | 2.51 | 82 | 1005.0 |
| 20260507083111 | 55 | 90 | 3.0 | 8.0 | 0.00 | 0.51 | 0.00 | 81 | 1004.0 |
| 20260507081610 | 54 | 180 | 8.0 | 13.0 | 0.00 | 0.51 | 0.00 | 84 | 1004.1 |
| 20260507080108 | 56 | 180 | 6.0 | 11.0 | 0.00 | 0.51 | 0.00 | 82 | 1004.0 |
| 20260507074609 | 54 | 180 | 6.0 | 13.0 | 0.00 | 0.51 | 0.00 | 87 | 1004.1 |
| 20260507073105 | 54 | 222 | 3.0 | 7.0 | 0.00 | 0.51 | 0.00 | 93 | 1004.1 |
| 20260507071604 | 53 | 222 | 8.0 | 15.0 | 0.00 | 0.51 | 0.00 | 92 | 1004.2 |
| 20260507070104 | 53 | 222 | 4.0 | 8.0 | 0.00 | 0.51 | 0.00 | 94 | 1004.1 |
| 20260507064604 | 53 | 222 | 3.0 | 8.0 | 0.00 | 0.51 | 0.00 | 95 | 1004.2 |
| 20260507063104 | 53 | 222 | 3.0 | 7.0 | 0.00 | 0.51 | 0.00 | 96 | 1004.2 |
| 20260507061604 | 53 | 222 | 4.0 | 10.0 | 0.00 | 0.51 | 0.00 | 98 | 1004.2 |
| 20260507054600 | 53 | 180 | 3.0 | 6.0 | 0.00 | 0.51 | 0.00 | 98 | 1003.1 |
| 20260507054559 | 53 | 180 | 3.0 | 6.0 | 0.00 | 0.51 | 0.00 | 98 | 1003.1 |
| 20260507053058 | 53 | 222 | 2.0 | 10.0 | 0.00 | 0.51 | 0.00 | 10 | 1003.1 |
| 20260507051555 | 53 | 222 | 2.0 | 8.0 | 0.00 | 0.51 | 0.00 | 10 | |
| 20260507050055 | 53 | 222 | 1.0 | 4.0 | 0.00 | 0.51 | 0.00 | 10 | 1003.1 |
| 20260507043054 | 53 | 135 | 0.0 | 0.0 | 0.00 | 0.51 | 0.00 | 10 | 1003.0 |
| 20260507034547 | 52 | 180 | 1.0 | 2.0 | 0.00 | 0.51 | 0.00 | 10 | 1002.1 |
| 20260507031543 | 52 | 222 | 0.0 | 0.0 | 0.00 | 0.51 | 0.00 | 10 | 1002.0 |
| 20260507021539 | 53 | 180 | 0.0 | 0.0 | 0.00 | 0.51 | 0.00 | 10 | 1002.0 |
| 20260507014537 | 51 | 180 | 0.0 | 0.0 | 0.00 | 1.51 | 0.00 | 10 | |
| 20260507013036 | 51 | 180 | 0.0 | 0.0 | 0.00 | 0.51 | 0.00 | 10 | 1002.1 |
| 20260507011533 | 50 | 222 | 0.0 | 0.0 | 0.00 | 0.51 | 0.00 | 10 | 1002.2 |
| 20260507010030 | 50 | 180 | 0.0 | 1.0 | 0.00 | 0.51 | 0.00 | 10 | 1001.1 |
| 20260507004530 | 50 | 222 | 1.0 | 3.0 | 0.00 | 0.51 | 0.00 | 10 | 1001.1 |
| 20260507003030 | 51 | 222 | 0.0 | 0.0 | 0.00 | 0.51 | 0.00 | 10 | 1001.1 |
| 20260507001528 | 51 | 270 | 0.0 | 0.0 | 0.00 | 0.51 | 0.00 | 10 | 1001.0 |
| 20260507000029 | 52 | 222 | 0.0 | 0.0 | 0.00 | 0.51 | 0.00 | 10 | |
| 20260506234527 | 52 | 180 | 3.0 | 6.0 | 0.00 | 0.51 | 0.00 | 10 | 1002.1 |
| 20260506233025 | 52 | 222 | 3.0 | 8.0 | 0.00 | 0.51 | 0.00 | 10 | 1002.1 |
| 20260506231524 | 52 | 180 | 2.0 | 6.0 | 0.00 | 0.51 | 0.00 | 10 | 1001.1 |
| 20260506230024 | 53 | 135 | 1.0 | 3.0 | 0.00 | 0.00 | 0.00 | 1001.0 | |
| 20260506230022 | 53 | 135 | 1.0 | 3.0 | 0.00 | 0.51 | 0.00 | 10 | 1001.0 |
| 20260506224520 | 53 | 222 | 0.0 | 0.0 | 0.01 | 0.50 | 0.00 | 99 | 1000.9 |
| 20260506221518 | 54 | 270 | 1.0 | 3.0 | 0.01 | 0.50 | 0.00 | 98 | 1000.8 |
| 20260506214716 | 55 | 180 | 0.0 | 0.0 | 0.01 | 0.50 | 0.00 | 10 | 1000.8 |
| 20260506213217 | 55 | 222 | 1.0 | 1.0 | 0.01 | 0.50 | 0.00 | 10 | 1000.8 |
| 20260506211716 | 54 | 222 | 4.0 | 10.0 | 0.01 | 0.50 | 0.00 | 10 | 1001.0 |
| 20260506210216 | 55 | 0 | 3.0 | 4.0 | 0.00 | 0.50 | 0.00 | 99 | 999.8 |
| 20260506204713 | 55 | 0 | 2.0 | 3.0 | 0.09 | 0.40 | 0.00 | 99 | 999.7 |
| 20260506203211 | 55 | 315 | 2.0 | 4.0 | 0.09 | 0.40 | 0.00 | 10 | 999.8 |
| 20260506201709 | 55 | 315 | 4.0 | 6.0 | 0.08 | 0.40 | 0.00 | 10 | 999.8 |
| 20260506200210 | 55 | 270 | 6.0 | 11.0 | 0.00 | 0.40 | 0.00 | 10 | 999.8 |
| 20260506200208 | 55 | 270 | 6.0 | 11.0 | 0.00 | 0.40 | 0.00 | 10 | 999.8 |
| 20260506194708 | 56 | 270 | 4.0 | 8.0 | 0.01 | 0.01 | 0.00 | 98 | 999.7 |
| 20260506193206 | 57 | 180 | 9.0 | 16.0 | 0.00 | 0.01 | 0.00 | 92 | 999.7 |
| 20260506191705 | 59 | 90 | 2.0 | 3.0 | 0.00 | 0.01 | 0.00 | 82 | 998.4 |
| 20260506190204 | 59 | 90 | 0.0 | 0.0 | 0.00 | 0.01 | 0.00 | 80 | 998.4 |
| 20260506184703 | 59 | 90 | 3.0 | 6.0 | 0.00 | 0.01 | 0.00 | 75 | 998.4 |
| 20260506183203 | 59 | 315 | 4.0 | 6.0 | 0.00 | 0.01 | 0.00 | 75 | 997.4 |
| 20260506181701 | 60 | 315 | 3.0 | 4.0 | 0.00 | 0.01 | 0.00 | 72 | 997.3 |
| 20260506180201 | 60 | 315 | 5.0 | 9.0 | 0.00 | 0.01 | 0.00 | 70 | 997.3 |
| 20260506174659 | 62 | 270 | 0.0 | 0.0 | 0.00 | 0.01 | 0.00 | 67 | 997.2 |
| 20260506173158 | 62 | 270 | 3.0 | 4.0 | 0.00 | 0.01 | 0.00 | 70 | 996.1 |
| 20260506171659 | 64 | 315 | 7.0 | 12.0 | 0.00 | 0.01 | 0.00 | 69 | 997.1 |
| 20260506170155 | 65 | 270 | 3.0 | 6.0 | 0.00 | 0.01 | 0.00 | 73 | 996.0 |
| 20260506164655 | 65 | 315 | 5.0 | 8.0 | 0.00 | 0.01 | 0.00 | 70 | 996.0 |
| 20260506163154 | 65 | 315 | 6.0 | 10.0 | 0.00 | 0.01 | 0.00 | 69 | 996.0 |
| 20260506161652 | 67 | 315 | 3.0 | 4.0 | 0.00 | 0.01 | 0.00 | 64 | 995.8 |
| 20260506160149 | 67 | 0 | 1.0 | 3.0 | 0.00 | 0.01 | 0.00 | 64 | 995.8 |
| 20260506153148 | 69 | 180 | 2.0 | 4.0 | 0.00 | 0.01 | 0.00 | 65 | 996.7 |
| 20260506151647 | 69 | 270 | 3.0 | 7.0 | 0.00 | 0.01 | 0.00 | 66 | 996.7 |
| 20260506150144 | 68 | 90 | 4.0 | 7.0 | 0.00 | 0.01 | 0.00 | 66 | 996.8 |
| 20260506144641 | 70 | 90 | 3.0 | 5.0 | 0.00 | 0.01 | 0.00 | 58 | 996.6 |
| 20260506143143 | 71 | 315 | 2.0 | 6.0 | 0.00 | 0.01 | 0.00 | 59 | 996.6 |
| 20260506143139 | 71 | 315 | 2.0 | 6.0 | 0.00 | 0.01 | 0.00 | 59 | 996.6 |
| 20260506141638 | 70 | 222 | 5.0 | 8.0 | 0.00 | 0.01 | 0.00 | 54 | 996.6 |
| 20260506141636 | 70 | 222 | 5.0 | 8.0 | 0.00 | 0.01 | 0.00 | 54 | 996.6 |
| 20260506140133 | 0 | 222 | 6.0 | 0.0 | 0.00 | 0.01 | 0.00 | 55 | 0.9 |
| 20260506134635 | 76 | 45 | 3.0 | 6.0 | 0.00 | 0.01 | 0.00 | 51 | 996.3 |
| 20260506134631 | 76 | 45 | 3.0 | 6.0 | 0.00 | 0.01 | 0.00 | 51 | 996.3 |
| 20260506131627 | 74 | 90 | 3.0 | 4.0 | 0.00 | 0.01 | 0.00 | 49 | 996.4 |
| 20260506130127 | 72 | 90 | 1.0 | 4.0 | 0.00 | 0.00 | 0.00 | ||
| 20260506124625 | 70 | 180 | 6.0 | 11.0 | 0.00 | 0.01 | 0.00 | 58 | 997.8 |
| 20260506123125 | 70 | 222 | 3.0 | 5.0 | 0.00 | 0.01 | 0.00 | 997.7 | |
| 20260506123123 | 70 | 222 | 3.0 | 5.0 | 0.00 | 0.01 | 0.00 | 53 | 997.7 |
| 20260506121622 | 70 | 180 | 1.0 | 2.0 | 0.00 | 0.01 | 0.00 | 57 | 997.7 |
| 20260506120121 | 69 | 222 | 2.0 | 5.0 | 0.00 | 0.01 | 0.00 | 59 | 997.9 |
| 20260506114620 | 72 | 222 | 2.0 | 4.0 | 0.00 | 0.01 | 0.00 | 54 | 997.6 |
| 20260506113120 | 74 | 222 | 2.0 | 4.0 | 0.00 | 0.01 | 0.00 | 57 | 997.5 |
| 20260506111618 | 70 | 270 | 3.0 | 6.0 | 0.00 | 0.01 | 0.00 | 63 | 997.8 |